Time;durP1;ratioP1;P1;durP2;ratioP2;P2;SDS_P1;SDS_P2;PMS_P1;PMS_P2;Temp;Humidity;BMP_temperature;BMP_pressure;BME280_temperature;BME280_humidity;BME280_pressure;Samples;Min_cycle;Max_cycle;Signal;HPM_P1;HPM_P2
2022/09/24 00:00:51;;;;;;;12.98;5.55;;;;;;;;;;4935929;29;20055;-53
2022/09/24 00:03:19;;;;;;;17.95;8.80;;;;;;;;;;4966841;28;20051;-59
2022/09/24 00:05:46;;;;;;;18.40;8.93;;;;;;;;;;4973743;28;20050;-65
2022/09/24 00:08:14;;;;;;;12.23;5.93;;;;;;;;;;4969071;28;20058;-70
2022/09/24 00:10:41;;;;;;;16.08;7.90;;;;;;;;;;4973799;28;20055;-65
2022/09/24 00:13:18;;;;;;;14.63;7.28;;;;;;;;;;4968908;28;20058;-67
2022/09/24 00:15:46;;;;;;;15.63;6.40;;;;;;;;;;4973331;28;20097;-64
2022/09/24 00:18:15;;;;;;;8.93;4.53;;;;;;;;;;4956444;28;20113;-58
2022/09/24 00:20:41;;;;;;;8.95;4.32;;;;;;;;;;4954889;28;20050;-60
2022/09/24 00:23:20;;;;;;;9.32;4.40;;;;;;;;;;4958263;28;20051;-66
2022/09/24 00:28:31;;;;;;;12.52;6.03;;;;;;;;;;4944784;28;20061;-71
2022/09/24 00:30:58;;;;;;;11.73;5.35;;;;;;;;;;4954384;28;20059;-52
2022/09/24 00:33:29;;;;;;;12.82;6.13;;;;;;;;;;4955669;28;20073;-48
2022/09/24 00:35:59;;;;;;;14.20;7.35;;;;;;;;;;4953759;29;20071;-49
2022/09/24 00:38:26;;;;;;;16.95;9.07;;;;;;;;;;4950539;28;20067;-59
2022/09/24 00:40:53;;;;;;;18.60;9.40;;;;;;;;;;4960373;28;20046;-59
2022/09/24 00:43:24;;;;;;;21.23;10.00;;;;;;;;;;4954928;28;20051;-56
2022/09/24 00:45:51;;;;;;;14.20;6.78;;;;;;;;;;4973005;28;20055;-58
2022/09/24 00:48:18;;;;;;;12.10;4.45;;;;;;;;;;4968228;28;20051;-57
2022/09/24 00:50:46;;;;;;;13.13;6.47;;;;;;;;;;4973002;28;20050;-59
2022/09/24 00:53:15;;;;;;;18.00;8.38;;;;;;;;;;4967831;28;20058;-63
2022/09/24 00:55:41;;;;;;;;;;;;;;;;;;4972480;28;20054;-54
2022/09/24 00:58:08;;;;;;;10.27;4.72;;;;;;;;;;4973302;28;19932;-56
2022/09/24 01:00:37;;;;;;;11.52;5.88;;;;;;;;;;4984990;28;20109;-62
2022/09/24 01:03:08;;;;;;;15.80;7.30;;;;;;;;;;4966374;28;20051;-57
2022/09/24 01:05:35;;;;;;;11.10;5.20;;;;;;;;;;4966251;28;20058;-56
2022/09/24 01:08:04;;;;;;;10.88;5.15;;;;;;;;;;4971963;28;20046;-59
2022/09/24 01:10:50;;;;;;;18.10;9.40;;;;;;;;;;4967731;28;20134;-60
2022/09/24 01:13:23;;;;;;;14.20;6.80;;;;;;;;;;4971554;28;20062;-56
2022/09/24 01:15:52;;;;;;;14.18;6.72;;;;;;;;;;4952632;28;20134;-53
2022/09/24 01:18:25;;;;;;;14.40;7.45;;;;;;;;;;4953616;29;20055;-53
2022/09/24 01:21:00;;;;;;;10.88;5.15;;;;;;;;;;4948778;28;20133;-55
2022/09/24 01:23:56;;;;;;;11.63;4.88;;;;;;;;;;4949878;28;20055;-55
2022/09/24 01:26:33;;;;;;;10.20;4.88;;;;;;;;;;4947838;28;20047;-54
2022/09/24 01:29:05;;;;;;;19.60;9.65;;;;;;;;;;4951064;28;20065;-53
2022/09/24 01:31:34;;;;;;;23.58;11.60;;;;;;;;;;4949378;28;20047;-56
2022/09/24 01:34:05;;;;;;;11.57;5.32;;;;;;;;;;4952058;28;20065;-53
2022/09/24 01:36:33;;;;;;;11.65;5.53;;;;;;;;;;4934855;28;20070;-55
2022/09/24 01:39:01;;;;;;;16.15;7.68;;;;;;;;;;4956826;28;20082;-56
2022/09/24 01:41:28;;;;;;;13.57;6.37;;;;;;;;;;4953131;28;20082;-69
2022/09/24 01:43:55;;;;;;;13.32;6.00;;;;;;;;;;4952139;29;20374;-65
2022/09/24 01:46:22;;;;;;;17.73;8.77;;;;;;;;;;4949257;28;20055;-66
2022/09/24 01:48:50;;;;;;;22.75;11.55;;;;;;;;;;4952710;29;20047;-63
2022/09/24 01:51:22;;;;;;;16.23;5.88;;;;;;;;;;4950796;28;20051;-68
2022/09/24 01:53:53;;;;;;;10.63;5.22;;;;;;;;;;4952866;29;20106;-62
2022/09/24 01:56:22;;;;;;;11.18;4.97;;;;;;;;;;4965538;28;20053;-55
2022/09/24 01:58:51;;;;;;;19.85;8.88;;;;;;;;;;4971133;28;20082;-52
2022/09/24 02:01:22;;;;;;;16.80;6.63;;;;;;;;;;4967710;28;20046;-59
2022/09/24 02:03:55;;;;;;;14.38;5.97;;;;;;;;;;4971889;28;20050;-67
2022/09/24 02:06:24;;;;;;;19.35;8.93;;;;;;;;;;4968616;28;20050;-64
2022/09/24 02:08:51;;;;;;;24.15;12.43;;;;;;;;;;4970891;28;20059;-61
2022/09/24 02:11:19;;;;;;;19.95;8.65;;;;;;;;;;4968001;28;20051;-54
2022/09/24 02:13:49;;;;;;;11.13;5.25;;;;;;;;;;4971323;28;20142;-69
2022/09/24 02:16:17;;;;;;;21.52;10.10;;;;;;;;;;4970041;28;20058;-63
2022/09/24 02:18:44;;;;;;;;;;;;;;;;;;4970705;28;20046;-59
2022/09/24 02:21:14;;;;;;;16.27;7.28;;;;;;;;;;4971318;28;19981;-53
2022/09/24 02:23:47;;;;;;;11.75;5.53;;;;;;;;;;4967830;28;20065;-68
2022/09/24 02:26:14;;;;;;;18.08;9.68;;;;;;;;;;4971513;28;20050;-64
2022/09/24 02:28:41;;;;;;;14.77;6.25;;;;;;;;;;4967052;28;20047;-59
2022/09/24 02:31:11;;;;;;;12.63;5.60;;;;;;;;;;4969359;28;20054;-50
2022/09/24 02:36:27;;;;;;;18.15;8.75;;;;;;;;;;4971089;28;20136;-59
2022/09/24 02:38:53;;;;;;;;;;;;;;;;;;4968481;28;20054;-57
2022/09/24 02:41:22;;;;;;;10.27;4.72;;;;;;;;;;4971676;28;19922;-56
2022/09/24 02:43:52;;;;;;;11.02;5.30;;;;;;;;;;4967160;28;20054;-57
2022/09/24 02:46:19;;;;;;;14.23;6.22;;;;;;;;;;4969706;28;20194;-53
2022/09/24 02:48:45;;;;;;;12.95;6.55;;;;;;;;;;4967146;28;20066;-56
2022/09/24 02:51:12;;;;;;;20.15;9.00;;;;;;;;;;4971257;28;20070;-58
2022/09/24 02:53:56;;;;;;;19.27;8.40;;;;;;;;;;4967869;28;20063;-69
2022/09/24 02:56:23;;;;;;;12.30;5.15;;;;;;;;;;4970405;28;20061;-61
2022/09/24 02:58:49;;;;;;;13.25;5.05;;;;;;;;;;4967367;28;20051;-53
2022/09/24 03:01:16;;;;;;;11.77;4.97;;;;;;;;;;4971422;28;20050;-54
2022/09/24 03:03:44;;;;;;;10.50;5.10;;;;;;;;;;4968117;28;20047;-53
2022/09/24 03:06:11;;;;;;;17.80;8.93;;;;;;;;;;4970797;28;20082;-53
2022/09/24 03:08:37;;;;;;;11.13;5.25;;;;;;;;;;4967841;28;20109;-48
2022/09/24 03:11:05;;;;;;;12.43;5.68;;;;;;;;;;4970373;28;20058;-54
2022/09/24 03:13:32;;;;;;;14.77;7.45;;;;;;;;;;4968233;28;20114;-57
2022/09/24 03:15:58;;;;;;;12.55;5.55;;;;;;;;;;4968096;28;20066;-68
2022/09/24 03:18:25;;;;;;;17.13;8.45;;;;;;;;;;4970198;28;20054;-69
2022/09/24 03:20:55;;;;;;;13.75;6.90;;;;;;;;;;4967241;28;20058;-64
2022/09/24 03:23:26;;;;;;;20.67;8.73;;;;;;;;;;4971182;28;20256;-61
2022/09/24 03:25:52;;;;;;;22.13;9.18;;;;;;;;;;4967589;28;20046;-70
2022/09/24 03:28:21;;;;;;;12.52;5.85;;;;;;;;;;4986517;28;20145;-72
2022/09/24 03:31:02;;;;;;;12.68;6.18;;;;;;;;;;4983206;28;20094;-54
2022/09/24 03:33:33;;;;;;;16.05;6.82;;;;;;;;;;4971093;28;20055;-69
2022/09/24 03:36:01;;;;;;;12.38;5.38;;;;;;;;;;4967341;28;20055;-68
2022/09/24 03:38:28;;;;;;;15.57;6.70;;;;;;;;;;4970548;28;20136;-58
2022/09/24 03:40:54;;;;;;;16.35;8.20;;;;;;;;;;4967316;28;20050;-64
2022/09/24 03:43:31;;;;;;;13.95;6.40;;;;;;;;;;4971074;28;20061;-63
2022/09/24 03:45:58;;;;;;;15.38;7.32;;;;;;;;;;4967331;28;20058;-56
2022/09/24 03:48:25;;;;;;;11.90;5.97;;;;;;;;;;4971133;28;20055;-52
2022/09/24 03:50:52;;;;;;;10.18;4.80;;;;;;;;;;4966140;28;20065;-58
2022/09/24 03:53:19;;;;;;;18.23;7.45;;;;;;;;;;4969150;28;20059;-55
2022/09/24 03:55:47;;;;;;;11.65;5.78;;;;;;;;;;4965301;28;20058;-55
2022/09/24 03:58:14;;;;;;;9.98;4.68;;;;;;;;;;4972193;28;20147;-59
2022/09/24 04:00:42;;;;;;;10.80;5.28;;;;;;;;;;4965535;28;20048;-62
2022/09/24 04:03:10;;;;;;;12.88;5.68;;;;;;;;;;4974215;28;20051;-64
2022/09/24 04:05:37;;;;;;;10.30;4.85;;;;;;;;;;4969814;28;20109;-65
2022/09/24 04:08:04;;;;;;;16.08;6.90;;;;;;;;;;4954722;28;20072;-61
2022/09/24 04:10:31;;;;;;;13.50;6.25;;;;;;;;;;4954368;28;20047;-62
2022/09/24 04:13:09;;;;;;;16.52;7.57;;;;;;;;;;4950419;28;20059;-62
2022/09/24 04:15:35;;;;;;;12.05;5.35;;;;;;;;;;4954328;29;20062;-61
2022/09/24 04:18:03;;;;;;;10.70;5.07;;;;;;;;;;4950527;28;20047;-56
2022/09/24 04:20:30;;;;;;;8.98;4.15;;;;;;;;;;4954604;28;20055;-58
2022/09/24 04:22:58;;;;;;;11.43;4.88;;;;;;;;;;4964859;28;20121;-55
2022/09/24 04:25:25;;;;;;;9.60;4.53;;;;;;;;;;4973246;28;20046;-55
2022/09/24 04:27:56;;;;;;;13.32;5.60;;;;;;;;;;4957476;28;20062;-57
2022/09/24 04:30:23;;;;;;;12.10;5.38;;;;;;;;;;4953492;29;20110;-56
2022/09/24 04:32:53;;;;;;;12.05;5.63;;;;;;;;;;4960967;28;20051;-62
2022/09/24 04:35:23;;;;;;;12.65;5.38;;;;;;;;;;4973391;28;20058;-57
2022/09/24 04:37:49;;;;;;;8.52;4.50;;;;;;;;;;4964644;28;20047;-58
2022/09/24 04:40:16;;;;;;;10.35;4.95;;;;;;;;;;4972537;28;20051;-56
2022/09/24 04:42:52;;;;;;;14.75;6.43;;;;;;;;;;4966431;28;20051;-54
2022/09/24 04:45:19;;;;;;;10.70;4.95;;;;;;;;;;4954148;29;20055;-53
2022/09/24 04:47:51;;;;;;;9.75;4.57;;;;;;;;;;4950175;28;20142;-53
2022/09/24 04:50:18;;;;;;;10.13;4.28;;;;;;;;;;4953689;29;20138;-56
2022/09/24 04:52:47;;;;;;;14.63;7.18;;;;;;;;;;4948480;28;20079;-61
2022/09/24 04:55:15;;;;;;;10.57;5.40;;;;;;;;;;4960053;28;20057;-60
2022/09/24 04:57:43;;;;;;;14.00;6.15;;;;;;;;;;4969339;28;20055;-68
2022/09/24 05:00:13;;;;;;;11.18;4.57;;;;;;;;;;4972843;28;20057;-56
2022/09/24 05:02:40;;;;;;;13.48;4.35;;;;;;;;;;4973288;28;20054;-60
2022/09/24 05:05:07;;;;;;;8.57;4.35;;;;;;;;;;4969487;28;20050;-58
2022/09/24 05:07:34;;;;;;;10.65;4.90;;;;;;;;;;4973282;28;20054;-63
2022/09/24 05:10:00;;;;;;;12.65;6.43;;;;;;;;;;4969018;28;20069;-63
2022/09/24 05:12:41;;;;;;;9.05;4.00;;;;;;;;;;4972802;28;20098;-62
2022/09/24 05:15:08;;;;;;;16.10;6.50;;;;;;;;;;4969970;28;20097;-67
2022/09/24 05:17:37;;;;;;;11.38;5.13;;;;;;;;;;4973127;28;20050;-62
2022/09/24 05:20:04;;;;;;;11.15;5.20;;;;;;;;;;4969695;28;20055;-65
2022/09/24 05:22:36;;;;;;;15.95;6.10;;;;;;;;;;4972185;28;20046;-57
2022/09/24 05:25:03;;;;;;;12.05;5.55;;;;;;;;;;4969048;28;20099;-59
2022/09/24 05:27:28;;;;;;;11.45;4.60;;;;;;;;;;4972703;28;20146;-57
2022/09/24 05:29:56;;;;;;;12.70;5.13;;;;;;;;;;4984724;28;20134;-58
2022/09/24 05:32:23;;;;;;;12.20;6.22;;;;;;;;;;4970685;28;20051;-56
2022/09/24 05:34:50;;;;;;;11.00;4.32;;;;;;;;;;4968389;28;20042;-59
2022/09/24 05:37:17;;;;;;;11.15;5.50;;;;;;;;;;4972646;28;20074;-52
2022/09/24 05:39:43;;;;;;;12.07;4.95;;;;;;;;;;4984833;28;20066;-50
2022/09/24 05:42:12;;;;;;;12.52;4.97;;;;;;;;;;4972300;28;20043;-48
2022/09/24 05:44:39;;;;;;;7.75;3.78;;;;;;;;;;4966605;28;20058;-53
2022/09/24 05:47:07;;;;;;;10.63;4.13;;;;;;;;;;4970278;28;20051;-63
2022/09/24 05:49:34;;;;;;;8.60;3.85;;;;;;;;;;4971156;28;20101;-52
2022/09/24 05:52:00;;;;;;;11.00;4.18;;;;;;;;;;4971100;28;20078;-56
2022/09/24 05:54:27;;;;;;;9.05;4.38;;;;;;;;;;4972414;28;20242;-57
2022/09/24 05:56:53;;;;;;;9.48;4.00;;;;;;;;;;4972246;28;20061;-59
2022/09/24 05:59:20;;;;;;;7.95;3.55;;;;;;;;;;4990858;28;20062;-55
2022/09/24 06:01:47;;;;;;;12.13;5.38;;;;;;;;;;4971372;28;20054;-55
2022/09/24 06:04:19;;;;;;;8.73;3.92;;;;;;;;;;4974459;28;20046;-62
2022/09/24 06:06:45;;;;;;;10.38;3.90;;;;;;;;;;4971529;28;20061;-62
2022/09/24 06:09:12;;;;;;;10.43;5.28;;;;;;;;;;4974921;28;20054;-71
2022/09/24 06:11:39;;;;;;;7.95;3.70;;;;;;;;;;4970574;28;20062;-61
2022/09/24 06:14:07;;;;;;;11.48;4.07;;;;;;;;;;4973683;28;20053;-53
2022/09/24 06:16:33;;;;;;;;;;;;;;;;;;4971169;28;20046;-52
2022/09/24 06:19:00;;;;;;;8.55;3.70;;;;;;;;;;4974045;28;19922;-53
2022/09/24 06:21:28;;;;;;;13.25;6.35;;;;;;;;;;4971098;28;20064;-59
2022/09/24 06:23:57;;;;;;;8.93;4.05;;;;;;;;;;4972781;28;20061;-58
2022/09/24 06:26:25;;;;;;;;;;;;;;;;;;4965556;28;20046;-62
2022/09/24 06:28:51;;;;;;;8.07;3.58;;;;;;;;;;4967944;28;19933;-73
2022/09/24 06:31:18;;;;;;;9.43;3.72;;;;;;;;;;4983935;28;20065;-69
2022/09/24 06:33:44;;;;;;;12.13;5.68;;;;;;;;;;4968093;28;20061;-61
2022/09/24 06:36:11;;;;;;;8.38;3.72;;;;;;;;;;4972801;28;20057;-67
2022/09/24 06:38:40;;;;;;;14.48;5.75;;;;;;;;;;4969789;28;20073;-55
2022/09/24 06:41:07;;;;;;;9.02;4.55;;;;;;;;;;4972887;28;20129;-71
2022/09/24 06:43:35;;;;;;;13.25;5.18;;;;;;;;;;4968813;28;20173;-60
2022/09/24 06:46:02;;;;;;;13.40;5.88;;;;;;;;;;4962396;28;20051;-72
2022/09/24 06:48:29;;;;;;;9.82;4.25;;;;;;;;;;4967222;28;20067;-66
2022/09/24 06:50:56;;;;;;;12.18;5.65;;;;;;;;;;4973627;28;20141;-67
2022/09/24 06:53:23;;;;;;;10.63;5.78;;;;;;;;;;4961851;28;20065;-71
2022/09/24 06:55:52;;;;;;;9.07;3.90;;;;;;;;;;4966706;28;20046;-73
2022/09/24 06:58:19;;;;;;;8.35;3.65;;;;;;;;;;4963988;28;20064;-70
2022/09/24 07:00:50;;;;;;;8.38;4.18;;;;;;;;;;4970386;28;20057;-56
2022/09/24 07:03:17;;;;;;;13.23;6.28;;;;;;;;;;4969688;28;20106;-69
2022/09/24 07:05:44;;;;;;;8.20;3.92;;;;;;;;;;4973832;28;20142;-62
2022/09/24 07:08:11;;;;;;;6.25;3.17;;;;;;;;;;4967833;28;20039;-64
2022/09/24 07:10:41;;;;;;;8.70;3.67;;;;;;;;;;4967377;28;20054;-64
2022/09/24 07:13:10;;;;;;;13.30;5.35;;;;;;;;;;4969195;28;20086;-64
2022/09/24 07:15:36;;;;;;;10.00;5.03;;;;;;;;;;4974177;28;20054;-66
2022/09/24 07:18:03;;;;;;;8.63;4.10;;;;;;;;;;4971440;28;20061;-57
2022/09/24 07:20:32;;;;;;;9.40;4.25;;;;;;;;;;4973468;28;20066;-55
2022/09/24 07:22:58;;;;;;;;;;;;;;;;;;4972852;28;20059;-68
2022/09/24 07:25:25;;;;;;;9.23;3.50;;;;;;;;;;4972912;28;19929;-57
2022/09/24 07:27:52;;;;;;;8.82;4.05;;;;;;;;;;4973333;28;20074;-61
2022/09/24 07:30:20;;;;;;;11.38;5.47;;;;;;;;;;4970126;28;20050;-66
2022/09/24 07:32:49;;;;;;;8.40;3.42;;;;;;;;;;4975408;28;20051;-57
2022/09/24 07:35:17;;;;;;;12.07;5.55;;;;;;;;;;4974252;28;20066;-64
2022/09/24 07:37:43;;;;;;;13.05;6.07;;;;;;;;;;4977828;28;20054;-59
2022/09/24 07:40:10;;;;;;;9.73;5.18;;;;;;;;;;4974020;28;20050;-63
2022/09/24 07:42:37;;;;;;;14.82;6.25;;;;;;;;;;4977633;28;20054;-61
2022/09/24 07:45:04;;;;;;;12.93;6.22;;;;;;;;;;4974429;28;20105;-61
2022/09/24 07:47:33;;;;;;;8.80;3.75;;;;;;;;;;4977513;28;20058;-55
2022/09/24 07:49:59;;;;;;;11.13;4.93;;;;;;;;;;4973922;28;20066;-58
2022/09/24 07:52:29;;;;;;;10.05;4.72;;;;;;;;;;4976479;28;20058;-60
2022/09/24 07:54:56;;;;;;;12.00;5.60;;;;;;;;;;4968601;28;20089;-61
2022/09/24 07:57:22;;;;;;;9.70;4.78;;;;;;;;;;4974034;28;20066;-61
2022/09/24 07:59:50;;;;;;;11.20;4.93;;;;;;;;;;4968072;28;20476;-71
2022/09/24 08:02:17;;;;;;;8.73;4.00;;;;;;;;;;4953689;28;20105;-55
2022/09/24 08:04:47;;;;;;;12.52;5.68;;;;;;;;;;4953283;28;20093;-55
2022/09/24 08:07:14;;;;;;;12.20;5.55;;;;;;;;;;4933898;28;20130;-56
2022/09/24 08:09:40;;;;;;;15.43;7.22;;;;;;;;;;4934951;28;20062;-58
2022/09/24 08:12:08;;;;;;;12.23;6.40;;;;;;;;;;4964877;28;20130;-51
2022/09/24 08:14:34;;;;;;;11.30;5.20;;;;;;;;;;4973098;28;20050;-66
2022/09/24 08:17:01;;;;;;;9.82;4.47;;;;;;;;;;4939951;28;20059;-65
2022/09/24 08:19:29;;;;;;;11.95;4.50;;;;;;;;;;4934083;29;20060;-55
2022/09/24 08:21:58;;;;;;;8.40;3.95;;;;;;;;;;4931806;28;20055;-62
2022/09/24 08:24:24;;;;;;;12.13;5.88;;;;;;;;;;4934961;29;20067;-58
2022/09/24 08:26:51;;;;;;;8.73;4.28;;;;;;;;;;4950493;28;20154;-63
2022/09/24 08:29:18;;;;;;;13.85;6.10;;;;;;;;;;4973016;28;20065;-59
2022/09/24 08:31:44;;;;;;;12.35;5.70;;;;;;;;;;4968763;28;20055;-59
2022/09/24 08:34:11;;;;;;;17.77;8.30;;;;;;;;;;4973565;28;20063;-68
2022/09/24 08:36:38;;;;;;;15.57;7.85;;;;;;;;;;4968038;28;20058;-66
2022/09/24 08:39:07;;;;;;;13.13;6.22;;;;;;;;;;4958670;28;20055;-63
2022/09/24 08:41:48;;;;;;;8.20;3.65;;;;;;;;;;4948092;28;20055;-64
2022/09/24 08:47:21;;;;;;;13.35;5.80;;;;;;;;;;4963993;28;20113;-63
2022/09/24 08:47:24;;;;;;;13.90;6.80;;;;;;;;;;4960060;28;20044;-54
2022/09/24 08:49:54;;;;;;;9.80;5.47;;;;;;;;;;4933758;29;20056;-57
2022/09/24 08:52:29;;;;;;;13.65;7.35;;;;;;;;;;4920847;29;20051;-62
2022/09/24 08:55:01;;;;;;;16.15;7.22;;;;;;;;;;4956115;28;20058;-56
2022/09/24 08:57:27;;;;;;;12.70;6.35;;;;;;;;;;4965373;28;20050;-61
2022/09/24 08:59:54;;;;;;;9.77;4.75;;;;;;;;;;4971139;28;20046;-68
2022/09/24 09:02:39;;;;;;;10.38;4.88;;;;;;;;;;4968297;28;20051;-69
2022/09/24 09:05:14;;;;;;;8.43;4.05;;;;;;;;;;4970036;28;20061;-62
2022/09/24 09:07:45;;;;;;;14.88;6.78;;;;;;;;;;4967583;28;20125;-66
2022/09/24 09:10:14;;;;;;;9.13;4.50;;;;;;;;;;4971089;28;20051;-69
2022/09/24 09:12:50;;;;;;;14.68;6.97;;;;;;;;;;4967991;28;20054;-67
2022/09/24 09:15:18;;;;;;;15.55;7.78;;;;;;;;;;4971409;28;20122;-68
2022/09/24 09:17:48;;;;;;;13.75;6.85;;;;;;;;;;4968664;28;20054;-55
2022/09/24 09:20:19;;;;;;;9.63;4.20;;;;;;;;;;4972580;28;20047;-61
2022/09/24 09:22:49;;;;;;;8.63;3.90;;;;;;;;;;4971929;28;20050;-58
2022/09/24 09:25:20;;;;;;;9.38;3.60;;;;;;;;;;4969358;28;20054;-61
2022/09/24 09:27:50;;;;;;;9.02;3.70;;;;;;;;;;4970823;28;20051;-69
2022/09/24 09:30:18;;;;;;;13.93;6.63;;;;;;;;;;4968251;28;20055;-62
2022/09/24 09:33:02;;;;;;;14.53;7.43;;;;;;;;;;4971417;28;20061;-69
2022/09/24 09:35:33;;;;;;;8.88;4.13;;;;;;;;;;4963958;28;20360;-69
2022/09/24 09:38:03;;;;;;;10.48;4.82;;;;;;;;;;4971842;28;20050;-58
2022/09/24 09:40:35;;;;;;;14.32;5.57;;;;;;;;;;4967199;28;20169;-61
2022/09/24 09:43:03;;;;;;;13.35;5.82;;;;;;;;;;4970986;28;20047;-54
2022/09/24 09:45:32;;;;;;;12.60;6.13;;;;;;;;;;4967167;28;20081;-56
2022/09/24 09:48:00;;;;;;;9.88;3.97;;;;;;;;;;4971877;28;20061;-59
2022/09/24 09:50:28;;;;;;;7.57;4.25;;;;;;;;;;4967271;28;20058;-55
2022/09/24 09:52:55;;;;;;;8.65;4.20;;;;;;;;;;4970911;28;20061;-57
2022/09/24 09:55:23;;;;;;;13.27;5.90;;;;;;;;;;4967041;28;20157;-60
2022/09/24 09:57:52;;;;;;;9.18;4.05;;;;;;;;;;4970855;28;20154;-69
2022/09/24 10:00:18;;;;;;;;;;;;;;;;;;4959431;28;20122;-56
2022/09/24 10:02:52;;;;;;;10.73;5.13;;;;;;;;;;4951779;29;19929;-68
2022/09/24 10:05:20;;;;;;;8.10;3.75;;;;;;;;;;4949129;28;20138;-59
2022/09/24 10:07:47;;;;;;;12.73;5.80;;;;;;;;;;4952465;29;20062;-67
2022/09/24 10:10:18;;;;;;;13.45;6.13;;;;;;;;;;4949193;28;20058;-59
2022/09/24 10:12:46;;;;;;;11.45;4.32;;;;;;;;;;4950385;28;20180;-63
2022/09/24 10:15:18;;;;;;;12.80;5.55;;;;;;;;;;4953135;28;20070;-57
2022/09/24 10:17:47;;;;;;;10.07;5.18;;;;;;;;;;4970853;28;20098;-60
2022/09/24 10:20:17;;;;;;;10.75;5.32;;;;;;;;;;4965729;28;20047;-60
2022/09/24 10:22:50;;;;;;;13.35;5.45;;;;;;;;;;4970588;28;20059;-62
2022/09/24 10:25:19;;;;;;;10.88;5.30;;;;;;;;;;4967813;28;20074;-54
2022/09/24 10:27:46;;;;;;;10.40;5.10;;;;;;;;;;4946758;28;20059;-64
2022/09/24 10:33:00;;;;;;;8.55;4.20;;;;;;;;;;4986347;28;20313;-56
2022/09/24 10:35:27;;;;;;;;;;;;;;;;;;4971969;28;20105;-56
2022/09/24 10:37:54;;;;;;;8.45;4.20;;;;;;;;;;4963274;28;19958;-56
2022/09/24 10:40:24;;;;;;;12.68;4.78;;;;;;;;;;4945843;29;20134;-55
2022/09/24 10:42:58;;;;;;;6.80;3.65;;;;;;;;;;4957613;28;20050;-52
2022/09/24 10:45:29;;;;;;;11.75;5.45;;;;;;;;;;4970675;28;20137;-56
2022/09/24 10:48:04;;;;;;;11.45;5.53;;;;;;;;;;4966462;28;20145;-58
2022/09/24 10:50:35;;;;;;;10.90;5.22;;;;;;;;;;4971051;28;20061;-55
2022/09/24 10:53:18;;;;;;;10.85;5.50;;;;;;;;;;4965907;28;20089;-57
2022/09/24 10:55:54;;;;;;;8.35;3.95;;;;;;;;;;4969850;28;20061;-61
2022/09/24 10:58:25;;;;;;;7.50;3.80;;;;;;;;;;4967446;28;20055;-61
2022/09/24 11:00:59;;;;;;;6.65;3.00;;;;;;;;;;4971033;28;20141;-62
2022/09/24 11:06:23;;;;;;;11.25;5.10;;;;;;;;;;4969775;28;20062;-63
2022/09/24 11:08:58;;;;;;;8.85;4.07;;;;;;;;;;4971042;28;20075;-70
2022/09/24 11:11:42;;;;;;;8.00;3.97;;;;;;;;;;4973915;28;20062;-57
2022/09/24 11:14:14;;;;;;;10.20;3.88;;;;;;;;;;4967869;28;20046;-52
2022/09/24 11:16:50;;;;;;;10.00;4.53;;;;;;;;;;4974156;28;20053;-53
2022/09/24 11:19:24;;;;;;;8.35;4.13;;;;;;;;;;4971498;28;20046;-60
2022/09/24 11:22:00;;;;;;;9.60;4.20;;;;;;;;;;4974626;28;20134;-56
2022/09/24 11:24:44;;;;;;;7.22;3.30;;;;;;;;;;4966589;28;20128;-59
2022/09/24 11:27:29;;;;;;;6.85;3.15;;;;;;;;;;4946584;29;20054;-64
2022/09/24 11:30:01;;;;;;;10.48;4.55;;;;;;;;;;4979937;28;20051;-59
2022/09/24 11:32:34;;;;;;;10.40;3.92;;;;;;;;;;4953968;28;20146;-59
2022/09/24 11:35:17;;;;;;;11.05;5.30;;;;;;;;;;4966668;28;20051;-64
2022/09/24 11:37:51;;;;;;;12.82;6.07;;;;;;;;;;4974206;28;20086;-61
2022/09/24 11:40:25;;;;;;;10.98;4.03;;;;;;;;;;4970659;28;20058;-57
2022/09/24 11:42:57;;;;;;;8.52;4.47;;;;;;;;;;4974108;28;20055;-63
2022/09/24 11:45:28;;;;;;;10.27;4.88;;;;;;;;;;4969961;28;20090;-57
2022/09/24 11:48:04;;;;;;;9.27;3.67;;;;;;;;;;4973774;28;20051;-56
2022/09/24 11:50:38;;;;;;;10.25;4.55;;;;;;;;;;4970881;28;20114;-61
2022/09/24 11:53:09;;;;;;;11.05;5.97;;;;;;;;;;4974410;28;20061;-58
2022/09/24 11:55:37;;;;;;;9.48;4.70;;;;;;;;;;4970542;28;20059;-60
2022/09/24 11:58:07;;;;;;;8.75;3.80;;;;;;;;;;4973875;28;20051;-63
2022/09/24 12:00:36;;;;;;;10.45;4.25;;;;;;;;;;4970190;28;20059;-64
2022/09/24 12:03:10;;;;;;;13.10;5.13;;;;;;;;;;4973448;28;20054;-58
2022/09/24 12:05:38;;;;;;;10.10;4.72;;;;;;;;;;4970268;28;20050;-61
2022/09/24 12:08:07;;;;;;;9.23;4.47;;;;;;;;;;4973848;28;20076;-66
2022/09/24 12:10:39;;;;;;;8.27;3.65;;;;;;;;;;4970083;28;20082;-66
2022/09/24 12:13:12;;;;;;;9.35;4.35;;;;;;;;;;4973428;28;20058;-61
2022/09/24 12:15:46;;;;;;;10.13;4.25;;;;;;;;;;4970150;28;20066;-53
2022/09/24 12:18:16;;;;;;;9.70;4.80;;;;;;;;;;4973672;28;20054;-64
2022/09/24 12:20:46;;;;;;;9.88;3.67;;;;;;;;;;4970071;28;20313;-67
2022/09/24 12:23:15;;;;;;;10.50;4.20;;;;;;;;;;4971259;28;20086;-70
2022/09/24 12:25:45;;;;;;;9.38;3.95;;;;;;;;;;4969289;28;20054;-68
2022/09/24 12:28:12;;;;;;;8.15;3.33;;;;;;;;;;4973468;28;20038;-59
2022/09/24 12:33:31;;;;;;;7.32;3.33;;;;;;;;;;4972892;28;20138;-68
2022/09/24 12:36:03;;;;;;;9.73;4.45;;;;;;;;;;4969194;28;20082;-64
2022/09/24 12:38:32;;;;;;;7.43;3.28;;;;;;;;;;4973060;28;20161;-71
2022/09/24 12:41:09;;;;;;;8.80;3.60;;;;;;;;;;4969142;28;20082;-72
2022/09/24 12:43:39;;;;;;;7.57;3.47;;;;;;;;;;4973548;28;20097;-71
2022/09/24 12:46:08;;;;;;;8.02;3.58;;;;;;;;;;4968518;28;20054;-65
2022/09/24 12:48:37;;;;;;;6.25;3.20;;;;;;;;;;4971508;28;20123;-66
2022/09/24 12:51:05;;;;;;;11.63;4.13;;;;;;;;;;4969243;28;20051;-55
2022/09/24 12:56:30;;;;;;;8.45;4.07;;;;;;;;;;4987222;28;20108;-57
2022/09/24 12:58:57;;;;;;;7.88;3.70;;;;;;;;;;4976539;28;20082;-67
2022/09/24 13:01:28;;;;;;;5.82;2.72;;;;;;;;;;4973685;28;20070;-57
2022/09/24 13:04:09;;;;;;;9.07;3.70;;;;;;;;;;4957100;28;20082;-60
2022/09/24 13:06:37;;;;;;;8.13;3.25;;;;;;;;;;4954546;28;20126;-57
2022/09/24 13:09:22;;;;;;;7.33;2.97;;;;;;;;;;4975677;28;20054;-60
2022/09/24 13:12:00;;;;;;;9.32;4.43;;;;;;;;;;4971791;28;20153;-64
2022/09/24 13:14:28;;;;;;;8.85;3.97;;;;;;;;;;4972857;28;20055;-54
2022/09/24 13:16:56;;;;;;;7.78;3.53;;;;;;;;;;4972586;28;20054;-50
2022/09/24 13:19:26;;;;;;;10.47;3.77;;;;;;;;;;4969836;28;20054;-56
2022/09/24 13:21:54;;;;;;;9.32;4.30;;;;;;;;;;4967789;28;20059;-63
2022/09/24 13:24:26;;;;;;;6.78;3.38;;;;;;;;;;4966081;28;20046;-63
2022/09/24 13:26:54;;;;;;;12.05;4.30;;;;;;;;;;4970984;28;20057;-56
2022/09/24 13:29:24;;;;;;;9.55;2.90;;;;;;;;;;4969595;28;20141;-59
2022/09/24 13:31:54;;;;;;;8.23;4.05;;;;;;;;;;4973669;28;20050;-56
2022/09/24 13:34:22;;;;;;;10.25;4.40;;;;;;;;;;4967879;28;20104;-60
2022/09/24 13:36:52;;;;;;;8.40;3.78;;;;;;;;;;4973632;28;20047;-59
2022/09/24 13:39:21;;;;;;;10.10;4.63;;;;;;;;;;4970537;28;20057;-54
2022/09/24 13:41:53;;;;;;;6.90;3.10;;;;;;;;;;4974224;28;20133;-56
2022/09/24 13:44:23;;;;;;;6.55;3.03;;;;;;;;;;4970674;28;20101;-62
2022/09/24 13:46:52;;;;;;;7.63;3.40;;;;;;;;;;4974957;28;20056;-57
2022/09/24 13:49:20;;;;;;;7.68;3.53;;;;;;;;;;4982062;28;20051;-53
2022/09/24 13:51:53;;;;;;;10.30;4.30;;;;;;;;;;4972278;28;20050;-55
2022/09/24 13:54:25;;;;;;;7.55;3.63;;;;;;;;;;4969476;28;20158;-60
2022/09/24 13:56:59;;;;;;;6.22;2.63;;;;;;;;;;4950908;29;20133;-54
2022/09/24 13:59:29;;;;;;;5.85;2.80;;;;;;;;;;4947308;28;20043;-63
2022/09/24 14:01:56;;;;;;;4.43;2.17;;;;;;;;;;4948973;28;20059;-69
2022/09/24 14:04:23;;;;;;;4.57;2.35;;;;;;;;;;4936571;29;20115;-62
2022/09/24 14:06:50;;;;;;;5.13;2.40;;;;;;;;;;4950985;29;20134;-68
2022/09/24 14:09:26;;;;;;;5.75;2.80;;;;;;;;;;4948136;28;20057;-70
2022/09/24 14:11:53;;;;;;;5.68;2.42;;;;;;;;;;4951833;28;20058;-69
2022/09/24 14:14:21;;;;;;;4.47;1.92;;;;;;;;;;4947929;29;20055;-70
2022/09/24 14:16:49;;;;;;;5.47;2.67;;;;;;;;;;4951116;29;20053;-70
2022/09/24 14:19:16;;;;;;;6.88;2.40;;;;;;;;;;4947061;29;20291;-68
2022/09/24 14:21:45;;;;;;;5.50;2.45;;;;;;;;;;4946323;29;20047;-64
2022/09/24 14:24:15;;;;;;;5.90;2.47;;;;;;;;;;4949256;28;20057;-62
2022/09/24 14:26:44;;;;;;;5.88;2.30;;;;;;;;;;4948015;28;20058;-68
2022/09/24 14:29:12;;;;;;;5.13;2.03;;;;;;;;;;4951705;28;20070;-70
2022/09/24 14:31:44;;;;;;;4.53;1.63;;;;;;;;;;4948066;28;20059;-63
2022/09/24 14:34:32;;;;;;;4.78;2.13;;;;;;;;;;4951827;28;20143;-65
2022/09/24 14:37:07;;;;;;;5.30;1.95;;;;;;;;;;4946868;29;20054;-63
2022/09/24 14:39:37;;;;;;;5.40;2.17;;;;;;;;;;4950182;28;20062;-71
2022/09/24 14:42:29;;;;;;;5.68;2.15;;;;;;;;;;4947453;28;20051;-67
2022/09/24 14:44:56;;;;;;;5.15;2.03;;;;;;;;;;4951760;29;20051;-60
2022/09/24 14:47:25;;;;;;;3.67;1.75;;;;;;;;;;4947933;28;20110;-69
2022/09/24 14:49:51;;;;;;;;;;;;;;;;;;4942948;28;20048;-65
2022/09/24 14:52:26;;;;;;;4.85;1.92;;;;;;;;;;4944268;29;19926;-70
2022/09/24 14:55:01;;;;;;;4.03;1.45;;;;;;;;;;4958567;28;20065;-60
2022/09/24 14:57:27;;;;;;;3.90;1.50;;;;;;;;;;4965716;28;20058;-62
2022/09/24 14:59:54;;;;;;;10.27;1.67;;;;;;;;;;4969452;28;20065;-66
2022/09/24 15:02:33;;;;;;;4.20;1.40;;;;;;;;;;4960164;28;20074;-60
2022/09/24 15:05:02;;;;;;;5.22;1.35;;;;;;;;;;4965816;28;20055;-59
2022/09/24 15:07:30;;;;;;;4.03;1.20;;;;;;;;;;4954691;28;20133;-64
2022/09/24 15:09:59;;;;;;;4.72;1.20;;;;;;;;;;4967007;28;20054;-69